createdAt,value
2019-06-10T00:01:32.962Z,25.30
2019-06-10T00:04:08.452Z,25.29
2019-06-10T00:06:36.518Z,25.25
2019-06-10T00:09:08.564Z,25.29
2019-06-10T00:11:41.106Z,25.26
2019-06-10T00:14:11.555Z,25.24
2019-06-10T00:16:41.796Z,25.24
2019-06-10T00:19:12.881Z,25.25
2019-06-10T00:21:43.769Z,25.25
2019-06-10T00:24:14.306Z,25.25
2019-06-10T00:26:44.530Z,25.24
2019-06-10T00:29:14.775Z,25.22
2019-06-10T00:31:46.698Z,25.21
2019-06-10T00:34:17.131Z,25.18
2019-06-10T00:36:47.348Z,25.21
2019-06-10T00:39:17.564Z,25.23
2019-06-10T00:41:47.919Z,25.21
2019-06-10T00:44:20.601Z,25.20
2019-06-10T00:46:51.641Z,25.19
2019-06-10T00:49:22.252Z,25.19
2019-06-10T00:51:54.237Z,25.17
2019-06-10T00:54:27.147Z,25.19
2019-06-10T00:56:57.845Z,25.18
2019-06-10T00:59:28.216Z,25.14
2019-06-10T01:01:58.508Z,25.14
2019-06-10T01:04:28.715Z,25.15
2019-06-10T01:07:00.741Z,25.11
2019-06-10T01:09:31.172Z,25.09
2019-06-10T01:12:02.595Z,25.08
2019-06-10T01:14:32.953Z,25.10
2019-06-10T01:17:03.657Z,25.09
2019-06-10T01:19:34.834Z,25.05
2019-06-10T01:22:05.991Z,25.01
2019-06-10T01:24:36.306Z,25.10
2019-06-10T01:27:07.522Z,25.09
2019-06-10T01:29:41.487Z,25.08
2019-06-10T01:32:12.295Z,25.08
2019-06-10T01:34:43.483Z,25.06
2019-06-10T01:37:14.817Z,25.05
2019-06-10T01:39:46.206Z,24.97
2019-06-10T01:42:17.200Z,25.01
2019-06-10T01:44:47.499Z,24.99
2019-06-10T01:47:18.284Z,24.91
2019-06-10T01:49:48.631Z,24.97
2019-06-10T01:52:21.075Z,24.89
2019-06-10T01:54:52.432Z,24.89
2019-06-10T01:57:24.193Z,24.89
2019-06-10T01:59:54.473Z,24.68
2019-06-10T02:02:26.360Z,24.71
2019-06-10T02:04:56.559Z,24.62
2019-06-10T02:07:27.338Z,24.66
2019-06-10T02:09:57.578Z,24.67
2019-06-10T02:12:27.885Z,24.67
2019-06-10T02:14:58.128Z,24.61
2019-06-10T02:17:31.052Z,24.59
2019-06-10T02:20:01.239Z,24.55
2019-06-10T02:22:31.883Z,24.50
2019-06-10T02:25:02.158Z,24.49
2019-06-10T02:27:33.011Z,24.47
2019-06-10T02:30:13.631Z,24.47
2019-06-10T02:32:37.758Z,24.30
2019-06-10T02:35:14.761Z,24.29
2019-06-10T02:37:44.078Z,24.14
2019-06-10T02:40:16.683Z,24.28
2019-06-10T02:42:45.858Z,24.33
2019-06-10T02:45:19.702Z,24.29
2019-06-10T02:47:48.890Z,24.02
2019-06-10T02:50:31.515Z,24.06
2019-06-10T02:52:54.314Z,24.03
2019-06-10T02:55:30.698Z,23.93
2019-06-10T02:57:58.421Z,23.97
2019-06-10T03:00:39.551Z,23.85
2019-06-10T03:03:03.825Z,23.84
2019-06-10T03:05:40.889Z,23.92
2019-06-10T03:08:07.205Z,23.97
2019-06-10T03:10:37.531Z,23.85
2019-06-10T03:13:07.770Z,23.97
2019-06-10T03:15:42.696Z,23.72
2019-06-10T03:18:13.628Z,23.93
2019-06-10T03:20:43.908Z,23.94
2019-06-10T03:23:14.194Z,23.90
2019-06-10T03:25:46.136Z,24.04
2019-06-10T03:28:17.408Z,24.01
2019-06-10T03:30:53.949Z,24.00
2019-06-10T03:33:20.842Z,24.15
2019-06-10T03:35:52.654Z,23.96
2019-06-10T03:38:27.003Z,23.91
2019-06-10T03:40:55.875Z,23.96
2019-06-10T03:43:26.696Z,23.84
2019-06-10T03:45:58.067Z,23.98
2019-06-10T03:48:29.212Z,23.88
2019-06-10T03:50:59.538Z,23.87
2019-06-10T03:53:29.940Z,23.90
2019-06-10T03:56:02.369Z,23.89
2019-06-10T03:58:34.590Z,23.80
2019-06-10T04:01:05.030Z,23.90
2019-06-10T04:03:35.376Z,23.83
2019-06-10T04:06:05.797Z,23.83
2019-06-10T04:08:36.725Z,23.79
2019-06-10T04:11:07.001Z,23.80
2019-06-10T04:13:37.293Z,23.92
2019-06-10T04:16:08.513Z,23.94
2019-06-10T04:18:39.293Z,23.93
2019-06-10T04:21:09.520Z,23.81
2019-06-10T04:23:42.151Z,23.80
2019-06-10T04:26:12.746Z,23.95
2019-06-10T04:28:43.819Z,23.86
2019-06-10T04:31:14.062Z,23.85
2019-06-10T04:33:44.306Z,24.05
2019-06-10T04:36:14.661Z,23.91
2019-06-10T04:38:45.376Z,23.83
2019-06-10T04:41:15.605Z,23.79
2019-06-10T04:43:45.833Z,23.70
2019-06-10T04:46:17.020Z,23.60
2019-06-10T04:48:47.245Z,23.76
2019-06-10T04:51:18.468Z,23.88
2019-06-10T04:53:52.230Z,23.74
2019-06-10T04:56:25.586Z,23.84
2019-06-10T04:58:54.848Z,23.58
2019-06-10T05:01:27.013Z,23.64
2019-06-10T05:03:57.466Z,23.80
2019-06-10T05:06:28.671Z,23.82
2019-06-10T05:08:59.649Z,23.81
2019-06-10T05:11:30.736Z,23.91
2019-06-10T05:14:02.893Z,23.90
2019-06-10T05:16:35.956Z,23.89
2019-06-10T05:19:05.260Z,24.01
2019-06-10T05:21:35.501Z,24.03
2019-06-10T05:24:07.344Z,23.54
2019-06-10T05:26:37.603Z,23.58
2019-06-10T05:29:07.823Z,23.82
2019-06-10T05:31:38.094Z,23.96
2019-06-10T05:34:08.749Z,23.84
2019-06-10T05:36:39.004Z,23.88
2019-06-10T05:39:09.208Z,23.87
2019-06-10T05:41:39.437Z,23.93
2019-06-10T05:44:09.778Z,24.10
2019-06-10T05:46:43.550Z,24.14
2019-06-10T05:49:13.255Z,24.05
2019-06-10T05:51:43.600Z,24.28
2019-06-10T05:54:13.845Z,24.41
2019-06-10T05:56:44.608Z,24.47
2019-06-10T05:59:14.986Z,24.60
2019-06-10T06:01:45.724Z,24.84
2019-06-10T06:04:15.968Z,24.68
2019-06-10T06:06:46.198Z,24.87
2019-06-10T06:09:16.440Z,25.03
2019-06-10T06:11:46.700Z,24.86
2019-06-10T06:14:17.479Z,24.86
2019-06-10T06:16:47.731Z,24.94
2019-06-10T06:19:18.052Z,24.78
2019-06-10T06:21:48.292Z,24.73
2019-06-10T06:24:19.116Z,24.77
2019-06-10T06:26:49.337Z,24.74
2019-06-10T06:29:22.086Z,24.83
2019-06-10T06:31:52.264Z,24.82
2019-06-10T06:34:23.064Z,24.73
2019-06-10T06:36:53.671Z,24.74
2019-06-10T06:39:24.367Z,24.91
2019-06-10T06:41:54.711Z,25.01
2019-06-10T06:44:25.409Z,25.16
2019-06-10T06:46:55.714Z,25.12
2019-06-10T06:49:25.996Z,25.23
2019-06-10T06:51:59.347Z,25.33
2019-06-10T06:54:30.482Z,25.39
2019-06-10T06:57:03.484Z,25.21
2019-06-10T06:59:35.766Z,25.20
2019-06-10T07:02:06.072Z,25.29
2019-06-10T07:04:37.478Z,25.37
2019-06-10T07:07:08.970Z,25.46
2019-06-10T07:09:40.624Z,25.51
2019-06-10T07:12:13.044Z,25.28
2019-06-10T07:14:45.988Z,25.17
2019-06-10T07:17:16.349Z,25.16
2019-06-10T07:19:46.607Z,25.19
2019-06-10T07:22:16.869Z,25.25
2019-06-10T07:24:48.902Z,25.32
2019-06-10T07:27:19.187Z,25.19
2019-06-10T07:29:49.406Z,25.34
2019-06-10T07:32:22.538Z,25.53
2019-06-10T07:34:52.693Z,25.58
2019-06-10T07:37:23.318Z,25.63
2019-06-10T07:39:53.575Z,25.20
2019-06-10T07:42:23.773Z,25.38
2019-06-10T07:44:54.469Z,25.49
2019-06-10T07:47:24.675Z,25.48
2019-06-10T07:49:54.916Z,25.52
2019-06-10T07:52:25.243Z,25.67
2019-06-10T07:54:55.976Z,25.47
2019-06-10T07:57:26.379Z,25.25
2019-06-10T07:59:56.686Z,25.32
2019-06-10T08:02:27.942Z,25.71
2019-06-10T08:04:58.635Z,25.84
2019-06-10T08:07:28.938Z,26.12
2019-06-10T08:09:59.238Z,26.16
2019-06-10T08:12:29.569Z,26.05
2019-06-10T08:15:02.796Z,26.27
2019-06-10T08:17:32.841Z,26.22
2019-06-10T08:20:03.224Z,26.18
2019-06-10T08:22:39.892Z,26.31
2019-06-10T08:25:06.086Z,25.90
2019-06-10T08:27:36.635Z,26.13
2019-06-10T08:30:21.139Z,26.21
2019-06-10T08:32:43.392Z,26.38
2019-06-10T08:35:12.987Z,26.27
2019-06-10T08:37:45.847Z,26.42
2019-06-10T08:40:17.016Z,26.18
2019-06-10T08:42:48.862Z,26.45
2019-06-10T08:45:22.615Z,26.48
2019-06-10T08:47:54.233Z,26.00
2019-06-10T08:50:24.874Z,25.50
2019-06-10T08:53:10.737Z,26.20
2019-06-10T08:55:27.883Z,26.07
2019-06-10T08:57:58.370Z,25.59
2019-06-10T09:00:29.941Z,26.29
2019-06-10T09:03:00.249Z,26.63
2019-06-10T09:05:32.410Z,26.71
2019-06-10T09:08:05.509Z,26.72
2019-06-10T09:10:35.950Z,27.10
2019-06-10T09:13:06.261Z,27.16
2019-06-10T09:15:38.615Z,27.10
2019-06-10T09:18:13.939Z,27.42
2019-06-10T09:20:47.522Z,27.41
2019-06-10T09:23:21.771Z,27.54
2019-06-10T09:25:50.469Z,27.52
2019-06-10T09:28:19.156Z,27.38
2019-06-10T09:30:54.086Z,26.64
2019-06-10T09:33:22.595Z,27.48
2019-06-10T09:35:55.039Z,27.59
2019-06-10T09:38:25.866Z,27.81
2019-06-10T09:41:01.840Z,27.88
2019-06-10T09:43:29.095Z,28.14
2019-06-10T09:45:59.933Z,28.33
2019-06-10T09:48:33.302Z,28.34
2019-06-10T09:51:02.853Z,28.27
2019-06-10T09:53:41.392Z,28.42
2019-06-10T09:56:05.076Z,28.68
2019-06-10T09:58:37.656Z,28.55
2019-06-10T10:01:07.955Z,27.98
2019-06-10T10:03:38.193Z,28.57
2019-06-10T10:06:14.923Z,28.74
2019-06-10T10:08:45.002Z,28.94
2019-06-10T10:11:13.821Z,29.25
2019-06-10T10:13:47.403Z,29.05
2019-06-10T10:16:16.112Z,29.34
2019-06-10T10:18:49.482Z,29.75
2019-06-10T10:21:18.804Z,29.96
2019-06-10T10:24:03.840Z,30.41
2019-06-10T10:26:21.071Z,30.66
2019-06-10T10:28:56.032Z,30.43
2019-06-10T10:31:24.112Z,30.76
2019-06-10T10:33:54.501Z,30.72
2019-06-10T10:36:24.719Z,30.76
2019-06-10T10:38:55.074Z,30.88
2019-06-10T10:41:25.841Z,31.18
2019-06-10T10:43:58.385Z,31.21
2019-06-10T10:46:28.003Z,31.52
2019-06-10T10:48:58.201Z,31.53
2019-06-10T10:51:28.417Z,31.45
2019-06-10T10:54:28.408Z,31.37
2019-06-10T10:56:33.383Z,31.02
2019-06-10T10:59:04.481Z,31.27
2019-06-10T11:01:36.542Z,31.46
2019-06-10T11:04:07.460Z,31.77
2019-06-10T11:06:38.223Z,32.03
2019-06-10T11:09:12.763Z,31.70
2019-06-10T11:11:47.228Z,31.52
2019-06-10T11:14:17.774Z,31.23
2019-06-10T11:16:49.497Z,31.63
2019-06-10T11:19:22.130Z,31.78
2019-06-10T11:21:51.870Z,32.20
2019-06-10T11:24:33.527Z,32.13
2019-06-10T11:26:56.543Z,32.07
2019-06-10T11:29:29.035Z,31.91
2019-06-10T11:31:59.247Z,32.17
2019-06-10T11:34:29.543Z,31.75
2019-06-10T11:37:02.171Z,31.90
2019-06-10T11:39:33.800Z,32.19
2019-06-10T11:42:04.314Z,31.91
2019-06-10T11:44:34.597Z,31.85
2019-06-10T11:47:04.847Z,32.10
2019-06-10T11:49:35.104Z,31.95
2019-06-10T11:52:05.900Z,31.98
2019-06-10T11:54:50.559Z,32.19
2019-06-10T11:57:08.170Z,31.63
2019-06-10T11:59:39.206Z,32.01
2019-06-10T12:02:09.951Z,31.95
2019-06-10T12:04:40.197Z,31.79
2019-06-10T12:07:12.706Z,32.15
2019-06-10T12:09:42.641Z,31.86
2019-06-10T12:12:13.621Z,32.02
2019-06-10T12:14:43.928Z,31.84
2019-06-10T12:17:32.281Z,31.56
2019-06-10T12:19:46.187Z,31.64
2019-06-10T12:22:17.858Z,31.67
2019-06-10T12:24:48.123Z,31.69
2019-06-10T12:27:18.348Z,31.27
2019-06-10T12:29:49.854Z,31.30
2019-06-10T12:32:22.493Z,31.17
2019-06-10T12:34:53.238Z,31.16
2019-06-10T12:37:23.977Z,31.28
2019-06-10T12:39:56.564Z,31.43
2019-06-10T12:42:26.652Z,31.43
2019-06-10T12:44:57.701Z,31.53
2019-06-10T12:47:29.075Z,31.60
2019-06-10T12:49:59.297Z,31.45
2019-06-10T12:52:32.388Z,31.32
2019-06-10T12:55:02.388Z,31.46
2019-06-10T12:57:33.926Z,31.54
2019-06-10T13:00:19.661Z,31.64
2019-06-10T13:02:38.854Z,31.71
2019-06-10T13:05:12.210Z,31.68
2019-06-10T13:07:43.701Z,31.81
2019-06-10T13:10:15.649Z,31.69
2019-06-10T13:12:48.861Z,31.70
2019-06-10T13:15:18.491Z,31.67
2019-06-10T13:17:48.794Z,31.46
2019-06-10T13:20:19.208Z,31.37
2019-06-10T13:22:50.037Z,31.13
2019-06-10T13:25:22.141Z,31.04
2019-06-10T13:27:52.526Z,30.83
2019-06-10T13:30:23.081Z,30.36
2019-06-10T13:32:53.897Z,30.44
2019-06-10T13:35:24.732Z,30.49
2019-06-10T13:37:55.059Z,30.47
2019-06-10T13:40:25.663Z,30.36
2019-06-10T13:42:57.677Z,30.17
2019-06-10T13:45:28.211Z,30.25
2019-06-10T13:48:01.107Z,29.94
2019-06-10T13:50:32.840Z,30.21
2019-06-10T13:53:05.394Z,30.37
2019-06-10T13:55:35.737Z,30.25
2019-06-10T13:58:08.404Z,30.46
2019-06-10T14:00:42.792Z,30.41
2019-06-10T14:03:15.996Z,30.31
2019-06-10T14:05:45.104Z,30.23
2019-06-10T14:08:15.584Z,30.30
2019-06-10T14:10:46.009Z,30.25
2019-06-10T14:13:16.927Z,30.50
2019-06-10T14:15:47.251Z,30.71
2019-06-10T14:18:17.597Z,31.25
2019-06-10T14:20:48.005Z,31.37
2019-06-10T14:23:18.963Z,31.50
2019-06-10T14:25:49.271Z,31.36
2019-06-10T14:28:35.761Z,31.43
2019-06-10T14:30:53.877Z,31.62
2019-06-10T14:33:24.041Z,31.70
2019-06-10T14:35:54.380Z,31.90
2019-06-10T14:38:24.685Z,31.86
2019-06-10T14:40:55.112Z,31.65
2019-06-10T14:43:25.792Z,31.71
2019-06-10T14:45:56.093Z,31.70
2019-06-10T14:48:26.383Z,31.54
2019-06-10T14:50:56.662Z,31.44
2019-06-10T14:53:27.011Z,31.24
2019-06-10T14:55:57.703Z,31.01
2019-06-10T14:58:28.030Z,31.10
2019-06-10T15:00:59.653Z,30.90
2019-06-10T15:03:32.556Z,30.78
2019-06-10T15:06:03.154Z,30.66
2019-06-10T15:08:33.696Z,30.69
2019-06-10T15:11:03.924Z,30.79
2019-06-10T15:13:34.209Z,30.79
2019-06-10T15:16:04.654Z,30.71
2019-06-10T15:18:35.639Z,30.91
2019-06-10T15:21:05.883Z,30.88
2019-06-10T15:23:36.165Z,30.84
2019-06-10T15:26:06.376Z,30.96
2019-06-10T15:28:37.063Z,30.92
2019-06-10T15:31:08.241Z,30.99
2019-06-10T15:33:38.536Z,30.65
2019-06-10T15:36:09.094Z,30.69
2019-06-10T15:38:39.882Z,30.63
2019-06-10T15:41:12.996Z,30.84
2019-06-10T15:43:42.397Z,30.80
2019-06-10T15:46:14.513Z,30.57
2019-06-10T15:48:45.717Z,30.59
2019-06-10T15:51:19.176Z,30.90
2019-06-10T15:53:49.451Z,30.91
2019-06-10T15:56:35.284Z,31.18
2019-06-10T15:58:55.130Z,30.98
2019-06-10T16:01:29.439Z,30.63
2019-06-10T16:03:59.650Z,30.74
2019-06-10T16:06:29.834Z,30.92
2019-06-10T16:09:04.108Z,30.50
2019-06-10T16:11:34.468Z,30.54
2019-06-10T16:14:06.466Z,30.52
2019-06-10T16:16:36.666Z,30.25
2019-06-10T16:19:12.836Z,30.50
2019-06-10T16:21:42.865Z,30.56
2019-06-10T16:24:15.077Z,30.37
2019-06-10T16:26:45.117Z,30.53
2019-06-10T16:29:17.071Z,30.59
2019-06-10T16:31:47.290Z,30.44
2019-06-10T16:34:19.572Z,30.46
2019-06-10T16:36:49.412Z,30.51
2019-06-10T16:39:26.804Z,30.53
2019-06-10T16:41:56.596Z,30.39
2019-06-10T16:44:28.205Z,30.77
2019-06-10T16:46:58.502Z,30.85
2019-06-10T16:49:32.764Z,30.82
2019-06-10T16:52:03.044Z,30.82
2019-06-10T16:54:33.245Z,30.80
2019-06-10T16:57:03.913Z,30.63
2019-06-10T16:59:36.613Z,30.48
2019-06-10T17:02:07.775Z,30.35
2019-06-10T17:04:37.996Z,30.54
2019-06-10T17:07:08.174Z,30.01
2019-06-10T17:09:38.817Z,30.34
2019-06-10T17:12:09.010Z,30.28
2019-06-10T17:14:39.196Z,29.87
2019-06-10T17:17:09.420Z,29.86
2019-06-10T17:19:45.641Z,29.80
2019-06-10T17:22:19.117Z,29.91
2019-06-10T17:24:49.340Z,29.41
2019-06-10T17:27:22.274Z,29.34
2019-06-10T17:29:52.067Z,29.16
2019-06-10T17:32:24.109Z,29.05
2019-06-10T17:34:54.231Z,29.22
2019-06-10T17:37:26.530Z,29.07
2019-06-10T17:40:02.638Z,28.81
2019-06-10T17:42:38.297Z,29.05
2019-06-10T17:45:06.661Z,29.36
2019-06-10T17:47:36.885Z,29.54
2019-06-10T17:50:07.458Z,29.08
2019-06-10T17:52:38.926Z,28.56
2019-06-10T17:55:09.107Z,28.43
2019-06-10T17:57:39.461Z,28.23
2019-06-10T18:00:12.145Z,28.68
2019-06-10T18:02:48.911Z,28.93
2019-06-10T18:05:22.461Z,28.80
2019-06-10T18:07:52.836Z,28.99
2019-06-10T18:10:24.044Z,28.64
2019-06-10T18:13:04.582Z,28.63
2019-06-10T18:15:30.319Z,28.35
2019-06-10T18:18:03.508Z,28.36
2019-06-10T18:20:36.622Z,28.33
2019-06-10T18:23:05.823Z,28.30
2019-06-10T18:25:36.930Z,28.10
2019-06-10T18:28:07.084Z,28.07
2019-06-10T18:30:37.793Z,27.99
2019-06-10T18:33:08.213Z,27.75
2019-06-10T18:35:38.875Z,27.84
2019-06-10T18:38:09.109Z,27.92
2019-06-10T18:40:39.877Z,27.85
2019-06-10T18:43:12.124Z,27.71
2019-06-10T18:45:42.853Z,27.61
2019-06-10T18:48:13.041Z,27.54
2019-06-10T18:50:46.416Z,27.60
2019-06-10T18:53:16.678Z,27.28
2019-06-10T18:55:46.904Z,27.29
2019-06-10T18:58:17.151Z,27.45
2019-06-10T19:00:59.647Z,27.36
2019-06-10T19:03:23.084Z,27.23
2019-06-10T19:05:54.822Z,27.16
2019-06-10T19:08:25.045Z,27.24
2019-06-10T19:10:55.347Z,26.83
2019-06-10T19:13:25.576Z,26.86
2019-06-10T19:15:57.435Z,25.78
2019-06-10T19:18:27.638Z,25.80
2019-06-10T19:20:57.862Z,25.95
2019-06-10T19:23:28.069Z,26.02
2019-06-10T19:26:02.979Z,25.77
2019-06-10T19:28:37.198Z,25.46
2019-06-10T19:31:07.191Z,25.49
2019-06-10T19:33:38.720Z,25.33
2019-06-10T19:36:13.482Z,25.26
2019-06-10T19:38:44.354Z,25.48
2019-06-10T19:41:16.540Z,25.40
2019-06-10T19:43:46.729Z,24.99
2019-06-10T19:46:17.345Z,24.91
2019-06-10T19:48:56.490Z,24.87
2019-06-10T19:51:20.598Z,24.81
2019-06-10T19:53:52.741Z,24.91
2019-06-10T19:56:26.564Z,24.86
2019-06-10T19:58:56.888Z,24.83
2019-06-10T20:01:27.124Z,24.82
2019-06-10T20:04:02.506Z,24.37
2019-06-10T20:06:35.772Z,24.67
2019-06-10T20:09:13.057Z,24.85
2019-06-10T20:11:45.666Z,24.83
2019-06-10T20:14:15.599Z,24.64
2019-06-10T20:16:48.577Z,24.71
2019-06-10T20:19:18.894Z,24.74
2019-06-10T20:21:50.745Z,24.82
2019-06-10T20:24:22.214Z,24.74
2019-06-10T20:26:56.273Z,24.70
2019-06-10T20:29:26.500Z,24.57
2019-06-10T20:31:57.635Z,24.60
2019-06-10T20:34:28.033Z,24.48
2019-06-10T20:37:04.738Z,24.53
2019-06-10T20:39:34.596Z,24.52
2019-06-10T20:42:05.043Z,24.52
2019-06-10T20:44:35.268Z,24.59
2019-06-10T20:47:05.927Z,24.29
2019-06-10T20:49:36.151Z,24.42
2019-06-10T20:52:14.259Z,24.34
2019-06-10T20:54:46.200Z,24.15
2019-06-10T20:57:15.646Z,24.14
2019-06-10T20:59:46.938Z,24.20
2019-06-10T21:02:17.918Z,24.33
2019-06-10T21:04:53.194Z,24.21
2019-06-10T21:07:25.224Z,24.18
2019-06-10T21:09:56.842Z,24.28
2019-06-10T21:12:27.065Z,24.27
2019-06-10T21:14:57.271Z,24.26
2019-06-10T21:17:28.843Z,23.89
2019-06-10T21:19:59.093Z,24.12
2019-06-10T21:22:32.521Z,23.69
2019-06-10T21:25:02.799Z,23.70
2019-06-10T21:27:35.029Z,24.02
2019-06-10T21:30:11.471Z,24.14
2019-06-10T21:32:37.376Z,23.52
2019-06-10T21:35:07.600Z,23.47
2019-06-10T21:37:45.213Z,23.66
2019-06-10T21:40:15.362Z,23.83
2019-06-10T21:42:45.831Z,23.68
2019-06-10T21:45:16.587Z,23.57
2019-06-10T21:47:50.381Z,23.68
2019-06-10T21:50:22.622Z,23.92
2019-06-10T21:52:54.814Z,23.46
2019-06-10T21:55:25.016Z,23.59
2019-06-10T21:57:56.877Z,23.87
2019-06-10T22:00:52.053Z,23.64
2019-06-10T22:03:12.542Z,23.64
2019-06-10T22:05:45.492Z,23.68
2019-06-10T22:08:17.657Z,23.78
2019-06-10T22:10:48.184Z,23.83
2019-06-10T22:13:18.458Z,23.87
2019-06-10T22:15:48.641Z,23.79
2019-06-10T22:18:22.886Z,23.68
2019-06-10T22:20:56.043Z,23.54
2019-06-10T22:23:25.268Z,23.73
2019-06-10T22:25:57.581Z,23.79
2019-06-10T22:28:34.399Z,23.78
2019-06-10T22:31:19.177Z,23.52
2019-06-10T22:33:36.526Z,23.47
2019-06-10T22:36:07.032Z,23.68
2019-06-10T22:38:41.649Z,23.72
2019-06-10T22:41:12.378Z,23.71
2019-06-10T22:43:42.974Z,23.30
2019-06-10T22:46:13.629Z,23.49
2019-06-10T22:48:48.913Z,23.68
2019-06-10T22:51:19.194Z,23.71
2019-06-10T22:53:53.069Z,23.77
2019-06-10T22:56:22.554Z,23.82
2019-06-10T22:59:03.382Z,23.78
2019-06-10T23:01:38.162Z,23.87
2019-06-10T23:04:06.131Z,23.94
2019-06-10T23:06:40.353Z,23.96
2019-06-10T23:09:12.975Z,24.17
2019-06-10T23:11:43.240Z,24.11
2019-06-10T23:14:13.446Z,24.19
2019-06-10T23:16:43.634Z,24.26
2019-06-10T23:19:16.190Z,24.31
2019-06-10T23:21:46.384Z,24.26
2019-06-10T23:24:17.438Z,24.26
2019-06-10T23:26:47.635Z,24.37
2019-06-10T23:29:23.527Z,24.34
2019-06-10T23:32:00.756Z,24.43
2019-06-10T23:34:25.614Z,24.22
2019-06-10T23:36:57.097Z,24.31
2019-06-10T23:39:30.216Z,24.31
2019-06-10T23:42:01.106Z,24.25
2019-06-10T23:44:33.016Z,24.17
2019-06-10T23:47:04.080Z,24.33
2019-06-10T23:49:37.220Z,24.05
2019-06-10T23:52:09.636Z,24.09
2019-06-10T23:54:40.646Z,24.16
2019-06-10T23:57:12.921Z,24.10
2019-06-10T23:59:42.877Z,24.23
